Flight Track Log - Related Links

Times and Time Zones

All times are in EDT time to prevent confusion due to time zone crossing. See the KAP927 flight status page for this flight to view local times or setup timezone preferences in your user account.

Time Position Orientation Groundspeed Altitude Reporting Facility
EDT Latitude Longitude Course Direction KTS MPH feet Rate Location/Type
Sun 07:08:48 AM 44.5203 -75.2761 148° Southeast 150 173 4,200  Level Boston Center
Sun 07:09:48 AM 44.4894 -75.2514 150° Southeast 139 160 4,800 550 Climbing Boston Center
Sun 07:10:48 AM 44.4589 -75.2294 153° Southeast 129 148 5,300 500 Climbing Boston Center
Sun 07:11:48 AM 44.4239 -75.2047 153° Southeast 129 148 5,800 500 Climbing Boston Center
Sun 07:12:48 AM 44.3994 -75.1803 144° Southeast 129 148 6,300 550 Climbing Boston Center
Sun 07:13:00 AM 44.5222 -75.3231 149° Southeast  Level Estimated
Sun 07:13:48 AM 44.3589 -75.1433 147° Southeast 134 154 6,900  Level Boston Center
Sun 07:14:00 AM 44.4862 -75.2917 148° Southeast  Level FlightAware Approximate
Sun 07:14:48 AM 44.3261 -75.1158 149° Southeast 140 161 7,400  Level Boston Center
Sun 07:15:48 AM 44.2872 -75.0822 148° Southeast 140 161 7,500 50 Climbing Boston Center
Sun 07:16:48 AM 44.2483 -75.0486 148° Southeast 157 181 7,500  Level Boston Center
Sun 07:17:48 AM 44.2094 -75.0150 148° Southeast 163 188 7,500  Level Boston Center
Sun 07:18:48 AM 44.1686 -74.9814 149° Southeast 168 193 7,500  Level Boston Center
Sun 07:19:48 AM 44.1278 -74.9450 147° Southeast 168 193 7,500  Level Boston Center
Sun 07:20:48 AM 44.0889 -74.9114 148° Southeast 168 193 7,500  Level Boston Center
Sun 07:21:48 AM 44.0500 -74.8781 148° Southeast 168 193 7,500  Level Boston Center
Sun 07:22:48 AM 44.0092 -74.8447 150° Southeast 168 193 7,500  Level Boston Center
Sun 07:23:49 AM 43.9681 -74.8114 150° Southeast 168 193 7,500  Level Boston Center
Sun 07:24:48 AM 43.9272 -74.7750 147° Southeast 168 193 7,500  Level Boston Center
Sun 07:25:48 AM 43.8883 -74.7419 149° Southeast 168 193 7,500  Level Boston Center
Sun 07:26:48 AM 43.8450 -74.7086 151° Southeast 168 193 7,500  Level Boston Center
Sun 07:27:48 AM 43.8042 -74.6725 147° Southeast 168 193 7,500  Level Boston Center
Sun 07:28:48 AM 43.7653 -74.6394 148° Southeast 168 193 7,500  Level Boston Center
Sun 07:29:48 AM 43.7242 -74.6064 150° Southeast 173 199 7,500  Level Boston Center
Sun 07:30:48 AM 43.6811 -74.5703 149° Southeast 173 199 7,500  Level Boston Center
Sun 07:31:48 AM 43.6419 -74.5375 149° Southeast 173 199 7,500  Level Boston Center
Sun 07:32:48 AM 43.5989 -74.5014 149° Southeast 173 199 7,500  Level Boston Center
Sun 07:33:48 AM 43.5578 -74.4686 150° Southeast 178 205 7,500  Level Boston Center
Sun 07:34:48 AM 43.5167 -74.4328 148° Southeast 178 205 7,500 62 Level Boston Center
Sun 07:35:25 AM 43.4881 -74.4061 146° Southeast 174 200 7,600  Climbing Boston Center
Sun 07:35:48 AM 43.4758 -74.3972 152° Southeast 178 205 7,500  Descending Boston Center
Sun 07:36:32 AM 43.4447 -74.3733 151° Southeast 172 198 7,600  Climbing Boston Center
Sun 07:36:48 AM 43.4367 -74.3644 141° Southeast 178 205 7,500  Descending Boston Center
Sun 07:37:33 AM 43.4017 -74.3375 151° Southeast 172 198 7,600  Climbing Boston Center
Sun 07:37:48 AM 43.3933 -74.3317 153° Southeast 178 205 7,500  Descending Boston Center
Sun 07:38:33 AM 43.3583 -74.3047 151° Southeast 174 200 7,600 100 Climbing Boston Center
Sun 07:38:48 AM 43.3483 -74.2931 140° Southeast 178 205 7,600  Level Boston Center
Sun 07:39:34 AM 43.3194 -74.2694 149° Southeast 175 201 7,600 -107 Level Boston Center
Sun 07:40:40 AM 43.2722 -74.2281 147° Southeast 179 206 7,400 -226 Descending Boston Center
Sun 07:41:47 AM 43.2228 -74.1925 152° Southeast 186 214 7,100 -344 Descending Boston Center
Sun 07:42:42 AM 43.1794 -74.1569 149° Southeast 188 216 6,700 -417 Descending Boston Center
Sun 07:43:42 AM 43.1361 -74.1189 147° Southeast 189 217 6,300 -446 Descending Boston Center
Sun 07:44:43 AM 43.0867 -74.0806 150° Southeast 187 215 5,800 -524 Descending Boston Center
Sun 07:45:48 AM 43.0456 -74.0453 148° Southeast 183 211 5,200 -624 Descending Boston Center
Sun 07:46:48 AM 42.9939 -74.0156 157° South 183 211 4,500 -600 Descending Boston Center
Sun 07:47:48 AM 42.9503 -73.9944 160° South 183 211 4,000 -500 Descending Boston Center
Sun 07:48:48 AM 42.9008 -73.9678 158° South 183 211 3,500 -450 Descending Boston Center
Sun 07:49:48 AM 42.8636 -73.9497 160° South 183 211 3,100 -480 Descending Boston Center
Sun 07:50:53 AM 42.8056 -73.9231 161° South 172 198 2,500 -429 Descending Boston Center
Sun 07:51:54 AM 42.7619 -73.9022 161° South 165 190 2,200 -275 Descending Boston Center
Sun 07:52:42 AM 42.7267 -73.8872 163° South 161 185 2,000 -330 Descending Boston Center
Sun 07:53:43 AM 42.6897 -73.8581 150° Southeast 160 184 1,600 -446 Descending Boston Center
Sun 07:54:43 AM 42.6964 -73.8072 80° East 147 169 1,100 -545 Descending Boston Center
Sun 07:55:44 AM 42.7319 -73.8081 359° North 115 132 500 -590 Descending Boston Center
Sun 07:57:00 AM 42.7333 -73.8000 160° South  Level FlightAware Approximate
Sun 08:04:00 AM 42.7491 -73.8020 160° South  Level Estimated
Sun 08:05:00 AM 42.7491 -73.8020 160° South  Level Estimated
Sun 08:06:00 AM 42.7491 -73.8020 160° South  Level Estimated

Login

Don't have an account? Register now (free) for customized features, flight alerts, and more!